sensor_id;sensor_type;location;lat;lon;timestamp;pressure;altitude;pressure_sealevel;temperature;humidity
36664;BME280;53333;51.976;20.144;2023-02-18T00:01:49;99265.19;;;8.57;64.23
36664;BME280;53333;51.976;20.144;2023-02-18T00:04:22;99263.66;;;8.52;64.14
36664;BME280;53333;51.976;20.144;2023-02-18T00:06:55;99267.31;;;8.50;64.36
36664;BME280;53333;51.976;20.144;2023-02-18T00:09:27;99291.28;;;8.50;64.29
36664;BME280;53333;51.976;20.144;2023-02-18T00:12:00;99280.72;;;8.48;64.39
36664;BME280;53333;51.976;20.144;2023-02-18T00:14:33;99276.34;;;8.47;64.19
36664;BME280;53333;51.976;20.144;2023-02-18T00:17:07;99291.28;;;8.50;64.08
36664;BME280;53333;51.976;20.144;2023-02-18T00:19:40;99295.50;;;8.54;64.08
36664;BME280;53333;51.976;20.144;2023-02-18T00:22:13;99281.94;;;8.59;63.79
36664;BME280;53333;51.976;20.144;2023-02-18T00:24:46;99293.38;;;8.61;64.05
36664;BME280;53333;51.976;20.144;2023-02-18T00:27:19;99291.47;;;8.63;63.76
36664;BME280;53333;51.976;20.144;2023-02-18T00:29:54;99284.44;;;8.62;63.96
36664;BME280;53333;51.976;20.144;2023-02-18T00:32:28;99279.19;;;8.60;63.78
36664;BME280;53333;51.976;20.144;2023-02-18T00:35:03;99292.50;;;8.60;63.52
36664;BME280;53333;51.976;20.144;2023-02-18T00:37:38;99284.53;;;8.60;63.73
36664;BME280;53333;51.976;20.144;2023-02-18T00:40:11;99284.53;;;8.60;63.70
36664;BME280;53333;51.976;20.144;2023-02-18T00:42:44;99283.72;;;8.58;63.69
36664;BME280;53333;51.976;20.144;2023-02-18T00:45:19;99280.31;;;8.56;63.50
36664;BME280;53333;51.976;20.144;2023-02-18T00:47:53;99290.19;;;8.54;63.69
36664;BME280;53333;51.976;20.144;2023-02-18T00:50:26;99300.03;;;8.52;63.65
36664;BME280;53333;51.976;20.144;2023-02-18T00:53:02;99286.91;;;8.49;63.71
36664;BME280;53333;51.976;20.144;2023-02-18T00:55:37;99287.94;;;8.46;63.63
36664;BME280;53333;51.976;20.144;2023-02-18T00:58:13;99303.13;;;8.44;63.56
36664;BME280;53333;51.976;20.144;2023-02-18T01:00:48;99291.72;;;8.41;63.68
36664;BME280;53333;51.976;20.144;2023-02-18T01:03:22;99297.22;;;8.37;63.69
36664;BME280;53333;51.976;20.144;2023-02-18T01:05:55;99298.25;;;8.35;63.62
36664;BME280;53333;51.976;20.144;2023-02-18T01:08:34;99292.25;;;8.31;63.61
36664;BME280;53333;51.976;20.144;2023-02-18T01:11:08;99301.41;;;8.26;63.58
36664;BME280;53333;51.976;20.144;2023-02-18T01:13:41;99297.09;;;8.23;63.59
36664;BME280;53333;51.976;20.144;2023-02-18T01:16:13;99301.63;;;8.21;63.59
36664;BME280;53333;51.976;20.144;2023-02-18T01:18:49;99291.97;;;8.20;63.56
36664;BME280;53333;51.976;20.144;2023-02-18T01:21:22;99291.84;;;8.22;63.61
36664;BME280;53333;51.976;20.144;2023-02-18T01:23:57;99290.06;;;8.22;63.55
36664;BME280;53333;51.976;20.144;2023-02-18T01:26:30;99300.63;;;8.24;63.64
36664;BME280;53333;51.976;20.144;2023-02-18T01:29:03;99285.44;;;8.26;63.37
36664;BME280;53333;51.976;20.144;2023-02-18T01:31:39;99280.03;;;8.27;63.28
36664;BME280;53333;51.976;20.144;2023-02-18T01:34:15;99290.69;;;8.27;63.15
36664;BME280;53333;51.976;20.144;2023-02-18T01:36:48;99269.56;;;8.24;63.18
36664;BME280;53333;51.976;20.144;2023-02-18T01:39:21;99275.13;;;8.19;63.07
36664;BME280;53333;51.976;20.144;2023-02-18T01:41:54;99286.88;;;8.15;63.26
36664;BME280;53333;51.976;20.144;2023-02-18T01:44:27;99284.44;;;8.11;63.26
36664;BME280;53333;51.976;20.144;2023-02-18T01:47:00;99310.31;;;8.07;63.26
36664;BME280;53333;51.976;20.144;2023-02-18T01:49:35;99289.31;;;8.03;63.15
36664;BME280;53333;51.976;20.144;2023-02-18T01:52:10;99297.44;;;7.99;63.17
36664;BME280;53333;51.976;20.144;2023-02-18T01:54:44;99286.97;;;7.96;63.06
36664;BME280;53333;51.976;20.144;2023-02-18T01:57:19;99288.81;;;7.94;63.15
36664;BME280;53333;51.976;20.144;2023-02-18T01:59:53;99298.84;;;7.89;63.07
36664;BME280;53333;51.976;20.144;2023-02-18T02:02:27;99296.50;;;7.83;63.17
36664;BME280;53333;51.976;20.144;2023-02-18T02:05:04;99291.50;;;7.77;63.16
36664;BME280;53333;51.976;20.144;2023-02-18T02:07:40;99311.28;;;7.71;63.10
36664;BME280;53333;51.976;20.144;2023-02-18T02:10:14;99274.31;;;7.67;63.11
36664;BME280;53333;51.976;20.144;2023-02-18T02:12:50;99278.91;;;7.63;63.05
36664;BME280;53333;51.976;20.144;2023-02-18T02:15:33;99293.22;;;7.60;63.19
36664;BME280;53333;51.976;20.144;2023-02-18T02:18:11;99292.50;;;7.57;63.00
36664;BME280;53333;51.976;20.144;2023-02-18T02:32:52;99264.91;;;7.42;62.89
36664;BME280;53333;51.976;20.144;2023-02-18T02:35:30;99275.56;;;7.42;62.84
36664;BME280;53333;51.976;20.144;2023-02-18T02:38:07;99272.97;;;7.40;62.83
36664;BME280;53333;51.976;20.144;2023-02-18T02:40:45;99257.09;;;7.39;62.80
36664;BME280;53333;51.976;20.144;2023-02-18T02:43:20;99275.84;;;7.36;62.60
36664;BME280;53333;51.976;20.144;2023-02-18T02:46:01;99265.38;;;7.33;62.64
36664;BME280;53333;51.976;20.144;2023-02-18T02:48:40;99272.53;;;7.31;62.59
36664;BME280;53333;51.976;20.144;2023-02-18T02:51:17;99265.59;;;7.28;62.68
36664;BME280;53333;51.976;20.144;2023-02-18T02:53:51;99280.75;;;7.26;62.57
36664;BME280;53333;51.976;20.144;2023-02-18T02:56:25;99295.03;;;7.23;62.50
36664;BME280;53333;51.976;20.144;2023-02-18T02:59:02;99271.28;;;7.20;62.48
36664;BME280;53333;51.976;20.144;2023-02-18T03:01:48;99276.66;;;7.19;62.42
36664;BME280;53333;51.976;20.144;2023-02-18T03:04:30;99295.25;;;7.19;62.41
36664;BME280;53333;51.976;20.144;2023-02-18T03:07:21;99284.84;;;7.14;62.38
36664;BME280;53333;51.976;20.144;2023-02-18T03:10:04;99292.91;;;7.13;62.44
36664;BME280;53333;51.976;20.144;2023-02-18T03:12:46;99305.41;;;7.11;62.29
36664;BME280;53333;51.976;20.144;2023-02-18T03:15:22;99304.47;;;7.12;62.44
36664;BME280;53333;51.976;20.144;2023-02-18T03:17:56;99301.88;;;7.10;62.30
36664;BME280;53333;51.976;20.144;2023-02-18T03:20:36;99302.81;;;7.09;62.26
36664;BME280;53333;51.976;20.144;2023-02-18T03:23:13;99312.66;;;7.07;62.29
36664;BME280;53333;51.976;20.144;2023-02-18T03:25:49;99327.78;;;7.05;62.22
36664;BME280;53333;51.976;20.144;2023-02-18T03:28:23;99318.13;;;7.04;62.24
36664;BME280;53333;51.976;20.144;2023-02-18T03:30:58;99316.44;;;7.01;62.16
36664;BME280;53333;51.976;20.144;2023-02-18T03:33:32;99326.22;;;7.01;62.39
36664;BME280;53333;51.976;20.144;2023-02-18T03:36:07;99320.97;;;6.99;62.36
36664;BME280;53333;51.976;20.144;2023-02-18T03:38:43;99336.97;;;6.98;62.30
36664;BME280;53333;51.976;20.144;2023-02-18T03:41:20;99346.81;;;6.96;62.31
36664;BME280;53333;51.976;20.144;2023-02-18T03:43:54;99357.50;;;6.94;62.39
36664;BME280;53333;51.976;20.144;2023-02-18T03:46:31;99357.59;;;6.93;62.19
36664;BME280;53333;51.976;20.144;2023-02-18T03:49:07;99360.31;;;6.91;62.24
36664;BME280;53333;51.976;20.144;2023-02-18T03:51:41;99354.25;;;6.87;62.13
36664;BME280;53333;51.976;20.144;2023-02-18T03:54:15;99358.72;;;6.87;62.24
36664;BME280;53333;51.976;20.144;2023-02-18T03:56:51;99357.06;;;6.84;62.15
36664;BME280;53333;51.976;20.144;2023-02-18T03:59:26;99360.72;;;6.82;62.11
36664;BME280;53333;51.976;20.144;2023-02-18T04:01:59;99373.16;;;6.81;62.22
36664;BME280;53333;51.976;20.144;2023-02-18T04:04:32;99372.28;;;6.81;62.23
36664;BME280;53333;51.976;20.144;2023-02-18T04:07:05;99383.91;;;6.78;62.17
36664;BME280;53333;51.976;20.144;2023-02-18T04:09:39;99371.63;;;6.76;62.03
36664;BME280;53333;51.976;20.144;2023-02-18T04:12:15;99381.47;;;6.73;62.16
36664;BME280;53333;51.976;20.144;2023-02-18T04:14:50;99384.25;;;6.70;61.98
36664;BME280;53333;51.976;20.144;2023-02-18T04:17:23;99395.00;;;6.67;62.03
36664;BME280;53333;51.976;20.144;2023-02-18T04:19:55;99395.13;;;6.64;62.05
36664;BME280;53333;51.976;20.144;2023-02-18T04:22:28;99400.50;;;6.63;62.20
36664;BME280;53333;51.976;20.144;2023-02-18T04:25:04;99406.75;;;6.62;62.07
36664;BME280;53333;51.976;20.144;2023-02-18T04:27:38;99401.50;;;6.60;62.01
36664;BME280;53333;51.976;20.144;2023-02-18T04:30:12;99419.22;;;6.60;62.07
36664;BME280;53333;51.976;20.144;2023-02-18T04:32:50;99403.31;;;6.60;62.01
36664;BME280;53333;51.976;20.144;2023-02-18T04:35:25;99405.94;;;6.60;61.98
36664;BME280;53333;51.976;20.144;2023-02-18T04:37:58;99415.78;;;6.58;62.11
36664;BME280;53333;51.976;20.144;2023-02-18T04:40:35;99402.59;;;6.56;62.08
36664;BME280;53333;51.976;20.144;2023-02-18T04:43:09;99402.59;;;6.56;62.00
36664;BME280;53333;51.976;20.144;2023-02-18T04:45:42;99407.06;;;6.54;61.96
36664;BME280;53333;51.976;20.144;2023-02-18T04:48:15;99408.03;;;6.53;62.01
36664;BME280;53333;51.976;20.144;2023-02-18T04:50:48;99406.22;;;6.53;61.99
36664;BME280;53333;51.976;20.144;2023-02-18T04:53:29;99392.09;;;6.53;61.99
36664;BME280;53333;51.976;20.144;2023-02-18T04:56:07;99404.56;;;6.51;62.04
36664;BME280;53333;51.976;20.144;2023-02-18T04:58:40;99408.94;;;6.52;62.07
36664;BME280;53333;51.976;20.144;2023-02-18T05:01:13;99396.69;;;6.49;61.93
36664;BME280;53333;51.976;20.144;2023-02-18T05:03:46;99385.19;;;6.49;62.01
36664;BME280;53333;51.976;20.144;2023-02-18T05:06:19;99396.69;;;6.49;61.88
36664;BME280;53333;51.976;20.144;2023-02-18T05:08:51;99402.00;;;6.49;61.85
36664;BME280;53333;51.976;20.144;2023-02-18T05:11:27;99387.78;;;6.50;61.91
36664;BME280;53333;51.976;20.144;2023-02-18T05:14:00;99393.94;;;6.51;61.91
36664;BME280;53333;51.976;20.144;2023-02-18T05:16:33;99402.78;;;6.51;61.82
36664;BME280;53333;51.976;20.144;2023-02-18T05:19:06;99416.03;;;6.51;61.76
36664;BME280;53333;51.976;20.144;2023-02-18T05:21:39;99404.47;;;6.52;61.76
36664;BME280;53333;51.976;20.144;2023-02-18T05:24:12;99411.47;;;6.55;61.72
36664;BME280;53333;51.976;20.144;2023-02-18T05:26:48;99396.38;;;6.55;61.78
36664;BME280;53333;51.976;20.144;2023-02-18T05:29:21;99379.56;;;6.57;61.69
36664;BME280;53333;51.976;20.144;2023-02-18T05:31:54;99380.47;;;6.55;61.73
36664;BME280;53333;51.976;20.144;2023-02-18T05:34:27;99367.28;;;6.54;61.61
36664;BME280;53333;51.976;20.144;2023-02-18T05:36:59;99391.16;;;6.54;61.95
36664;BME280;53333;51.976;20.144;2023-02-18T05:39:32;99373.59;;;6.51;61.67
36664;BME280;53333;51.976;20.144;2023-02-18T05:42:06;99369.19;;;6.50;61.63
36664;BME280;53333;51.976;20.144;2023-02-18T05:44:39;99395.81;;;6.49;61.61
36664;BME280;53333;51.976;20.144;2023-02-18T05:47:12;99387.00;;;6.48;61.70
36664;BME280;53333;51.976;20.144;2023-02-18T05:49:45;99385.25;;;6.47;61.70
36664;BME280;53333;51.976;20.144;2023-02-18T05:52:18;99411.00;;;6.45;61.59
36664;BME280;53333;51.976;20.144;2023-02-18T05:54:52;99409.28;;;6.44;61.67
36664;BME280;53333;51.976;20.144;2023-02-18T05:57:28;99401.44;;;6.41;61.71
36664;BME280;53333;51.976;20.144;2023-02-18T06:00:01;99426.28;;;6.40;61.78
36664;BME280;53333;51.976;20.144;2023-02-18T06:02:35;99435.06;;;6.41;61.72
36664;BME280;53333;51.976;20.144;2023-02-18T06:05:07;99426.28;;;6.40;61.69
36664;BME280;53333;51.976;20.144;2023-02-18T06:07:40;99425.31;;;6.41;61.69
36664;BME280;53333;51.976;20.144;2023-02-18T06:10:16;99438.59;;;6.41;61.62
36664;BME280;53333;51.976;20.144;2023-02-18T06:12:55;99440.38;;;6.41;61.53
36664;BME280;53333;51.976;20.144;2023-02-18T06:15:28;99450.06;;;6.42;61.54
36664;BME280;53333;51.976;20.144;2023-02-18T06:18:01;99434.94;;;6.44;61.52
36664;BME280;53333;51.976;20.144;2023-02-18T06:20:33;99434.88;;;6.45;61.47
36664;BME280;53333;51.976;20.144;2023-02-18T06:23:06;99448.03;;;6.48;61.45
36664;BME280;53333;51.976;20.144;2023-02-18T06:25:42;99444.44;;;6.49;61.36
36664;BME280;53333;51.976;20.144;2023-02-18T06:28:16;99454.97;;;6.51;61.51
36664;BME280;53333;51.976;20.144;2023-02-18T06:30:51;99440.72;;;6.53;61.37
36664;BME280;53333;51.976;20.144;2023-02-18T06:33:23;99462.78;;;6.54;61.30
36664;BME280;53333;51.976;20.144;2023-02-18T06:35:57;99468.09;;;6.54;61.44
36664;BME280;53333;51.976;20.144;2023-02-18T06:38:34;99469.00;;;6.54;61.25
36664;BME280;53333;51.976;20.144;2023-02-18T06:41:08;99455.53;;;6.59;61.09
36664;BME280;53333;51.976;20.144;2023-02-18T06:43:47;99466.84;;;6.63;61.15
36664;BME280;53333;51.976;20.144;2023-02-18T06:46:20;99463.13;;;6.67;61.09
36664;BME280;53333;51.976;20.144;2023-02-18T06:48:53;99472.56;;;6.74;61.07
36664;BME280;53333;51.976;20.144;2023-02-18T06:51:26;99471.44;;;6.80;60.95
36664;BME280;53333;51.976;20.144;2023-02-18T06:53:59;99470.09;;;6.90;60.84
36664;BME280;53333;51.976;20.144;2023-02-18T06:56:32;99481.34;;;6.95;60.96
36664;BME280;53333;51.976;20.144;2023-02-18T06:59:06;99486.34;;;7.03;60.63
36664;BME280;53333;51.976;20.144;2023-02-18T07:01:39;99490.44;;;7.10;60.73
36664;BME280;53333;51.976;20.144;2023-02-18T07:04:14;99492.66;;;7.19;60.50
36664;BME280;53333;51.976;20.144;2023-02-18T07:06:49;99490.44;;;7.29;60.44
36664;BME280;53333;51.976;20.144;2023-02-18T07:09:22;99508.78;;;7.35;60.60
36664;BME280;53333;51.976;20.144;2023-02-18T07:11:56;99497.78;;;7.43;60.39
36664;BME280;53333;51.976;20.144;2023-02-18T07:14:32;99493.19;;;7.46;60.25
36664;BME280;53333;51.976;20.144;2023-02-18T07:17:05;99483.38;;;7.49;60.31
36664;BME280;53333;51.976;20.144;2023-02-18T07:19:38;99487.94;;;7.45;60.33
36664;BME280;53333;51.976;20.144;2023-02-18T07:22:10;99496.16;;;7.40;60.32
36664;BME280;53333;51.976;20.144;2023-02-18T07:24:43;99499.81;;;7.38;60.34
36664;BME280;53333;51.976;20.144;2023-02-18T07:27:18;99493.72;;;7.36;60.48
36664;BME280;53333;51.976;20.144;2023-02-18T07:29:52;99501.69;;;7.36;60.45
36664;BME280;53333;51.976;20.144;2023-02-18T07:32:25;99507.78;;;7.38;60.49
36664;BME280;53333;51.976;20.144;2023-02-18T07:34:58;99514.97;;;7.36;60.52
36664;BME280;53333;51.976;20.144;2023-02-18T07:37:33;99513.09;;;7.38;60.41
36664;BME280;53333;51.976;20.144;2023-02-18T07:40:08;99513.22;;;7.35;60.46
36664;BME280;53333;51.976;20.144;2023-02-18T07:42:42;99513.38;;;7.32;60.48
36664;BME280;53333;51.976;20.144;2023-02-18T07:45:16;99513.09;;;7.38;60.36
36664;BME280;53333;51.976;20.144;2023-02-18T07:47:49;99512.88;;;7.42;60.30
36664;BME280;53333;51.976;20.144;2023-02-18T07:50:21;99494.38;;;7.60;60.12
36664;BME280;53333;51.976;20.144;2023-02-18T07:52:54;99505.56;;;7.67;60.08
36664;BME280;53333;51.976;20.144;2023-02-18T07:55:27;99514.25;;;7.89;59.72
36664;BME280;53333;51.976;20.144;2023-02-18T07:58:20;99495.63;;;8.26;59.31
36664;BME280;53333;51.976;20.144;2023-02-18T08:00:55;99491.06;;;8.47;59.10
36664;BME280;53333;51.976;20.144;2023-02-18T08:03:28;99495.66;;;8.96;58.51
36664;BME280;53333;51.976;20.144;2023-02-18T08:06:03;99508.25;;;9.09;58.46
36664;BME280;53333;51.976;20.144;2023-02-18T08:08:38;99490.41;;;8.94;58.71
36664;BME280;53333;51.976;20.144;2023-02-18T08:11:11;99507.78;;;9.01;58.59
36664;BME280;53333;51.976;20.144;2023-02-18T08:13:50;99505.78;;;8.89;58.94
36664;BME280;53333;51.976;20.144;2023-02-18T08:16:24;99495.91;;;8.91;58.81
36664;BME280;53333;51.976;20.144;2023-02-18T08:19:05;99502.06;;;9.58;57.63
36664;BME280;53333;51.976;20.144;2023-02-18T08:21:38;99497.16;;;10.14;56.96
36664;BME280;53333;51.976;20.144;2023-02-18T08:24:11;99494.06;;;10.06;57.27
36664;BME280;53333;51.976;20.144;2023-02-18T08:26:44;99487.28;;;10.00;57.27
36664;BME280;53333;51.976;20.144;2023-02-18T08:29:31;99503.03;;;10.37;56.80
36664;BME280;53333;51.976;20.144;2023-02-18T08:32:07;99487.59;;;10.26;57.22
36664;BME280;53333;51.976;20.144;2023-02-18T08:34:41;99469.38;;;10.03;57.48
36664;BME280;53333;51.976;20.144;2023-02-18T08:37:14;99471.28;;;10.00;57.48
36664;BME280;53333;51.976;20.144;2023-02-18T08:39:50;99484.72;;;9.99;57.46
36664;BME280;53333;51.976;20.144;2023-02-18T08:42:23;99482.69;;;10.18;57.08
36664;BME280;53333;51.976;20.144;2023-02-18T08:44:55;99495.50;;;10.74;56.24
36664;BME280;53333;51.976;20.144;2023-02-18T08:47:29;99478.28;;;11.93;54.68
36664;BME280;53333;51.976;20.144;2023-02-18T08:50:22;99494.56;;;12.98;52.84
36664;BME280;53333;51.976;20.144;2023-02-18T08:52:57;99497.97;;;13.13;52.92
36664;BME280;53333;51.976;20.144;2023-02-18T08:55:34;99492.78;;;13.87;52.08
36664;BME280;53333;51.976;20.144;2023-02-18T08:58:08;99486.31;;;14.13;51.75
36664;BME280;53333;51.976;20.144;2023-02-18T09:00:42;99471.09;;;14.74;51.17
36664;BME280;53333;51.976;20.144;2023-02-18T09:03:17;99492.72;;;15.41;50.47
36664;BME280;53333;51.976;20.144;2023-02-18T09:05:50;99490.41;;;15.82;50.41
36664;BME280;53333;51.976;20.144;2023-02-18T09:08:22;99472.78;;;15.21;51.08
36664;BME280;53333;51.976;20.144;2023-02-18T09:10:57;99482.56;;;14.16;52.46
36664;BME280;53333;51.976;20.144;2023-02-18T09:13:31;99494.56;;;13.23;54.06
36664;BME280;53333;51.976;20.144;2023-02-18T09:16:08;99499.75;;;12.61;55.09
36664;BME280;53333;51.976;20.144;2023-02-18T09:18:43;99488.66;;;12.12;55.82
36664;BME280;53333;51.976;20.144;2023-02-18T09:21:17;99514.22;;;11.89;56.07
36664;BME280;53333;51.976;20.144;2023-02-18T09:23:51;99504.09;;;11.80;55.78
36664;BME280;53333;51.976;20.144;2023-02-18T09:26:27;99520.38;;;11.48;56.24
36664;BME280;53333;51.976;20.144;2023-02-18T09:29:00;99500.72;;;11.06;56.83
36664;BME280;53333;51.976;20.144;2023-02-18T09:31:36;99511.31;;;10.63;57.26
36664;BME280;53333;51.976;20.144;2023-02-18T09:34:11;99499.28;;;10.24;57.47
36664;BME280;53333;51.976;20.144;2023-02-18T09:36:44;99507.66;;;9.86;57.96
36664;BME280;53333;51.976;20.144;2023-02-18T09:39:16;99538.88;;;9.52;58.16
36664;BME280;53333;51.976;20.144;2023-02-18T09:41:50;99532.38;;;9.24;58.50
36664;BME280;53333;51.976;20.144;2023-02-18T09:44:24;99537.50;;;8.94;58.63
36664;BME280;53333;51.976;20.144;2023-02-18T09:46:59;99550.97;;;8.73;58.62
36664;BME280;53333;51.976;20.144;2023-02-18T09:49:36;99541.63;;;8.64;58.60
36664;BME280;53333;51.976;20.144;2023-02-18T09:52:10;99548.69;;;8.65;58.51
36664;BME280;53333;51.976;20.144;2023-02-18T09:54:44;99551.06;;;8.71;58.22
36664;BME280;53333;51.976;20.144;2023-02-18T09:57:20;99545.44;;;8.78;58.02
36664;BME280;53333;51.976;20.144;2023-02-18T09:59:59;99555.84;;;8.82;57.90
36664;BME280;53333;51.976;20.144;2023-02-18T10:02:44;99546.13;;;8.81;57.72
36664;BME280;53333;51.976;20.144;2023-02-18T10:05:23;99546.97;;;8.82;57.75
36664;BME280;53333;51.976;20.144;2023-02-18T10:07:57;99539.28;;;8.76;57.68
36664;BME280;53333;51.976;20.144;2023-02-18T10:10:34;99533.97;;;8.76;57.63
36664;BME280;53333;51.976;20.144;2023-02-18T10:13:10;99556.69;;;8.83;57.26
36664;BME280;53333;51.976;20.144;2023-02-18T10:15:45;99558.59;;;8.81;57.30
36664;BME280;53333;51.976;20.144;2023-02-18T10:18:23;99570.25;;;8.78;57.36
36664;BME280;53333;51.976;20.144;2023-02-18T10:21:02;99552.13;;;8.67;57.52
36664;BME280;53333;51.976;20.144;2023-02-18T10:23:37;99556.00;;;8.62;57.48
36664;BME280;53333;51.976;20.144;2023-02-18T10:26:11;99557.06;;;8.58;57.46
36664;BME280;53333;51.976;20.144;2023-02-18T10:28:46;99555.56;;;8.52;57.55
36664;BME280;53333;51.976;20.144;2023-02-18T10:31:19;99561.13;;;8.47;57.66
36664;BME280;53333;51.976;20.144;2023-02-18T10:33:56;99559.47;;;8.45;57.66
36664;BME280;53333;51.976;20.144;2023-02-18T10:36:34;99561.63;;;8.36;57.67
36664;BME280;53333;51.976;20.144;2023-02-18T10:39:13;99537.81;;;8.33;57.82
36664;BME280;53333;51.976;20.144;2023-02-18T10:41:50;99549.53;;;8.29;57.74
36664;BME280;53333;51.976;20.144;2023-02-18T10:44:30;99542.81;;;8.22;57.77
36664;BME280;53333;51.976;20.144;2023-02-18T10:47:10;99531.63;;;8.15;57.88
36664;BME280;53333;51.976;20.144;2023-02-18T10:49:54;99529.97;;;8.13;57.89
36664;BME280;53333;51.976;20.144;2023-02-18T10:52:32;99528.22;;;8.12;57.84
36664;BME280;53333;51.976;20.144;2023-02-18T10:55:07;99527.38;;;8.11;57.83
36664;BME280;53333;51.976;20.144;2023-02-18T10:57:44;99551.38;;;8.10;57.79
36664;BME280;53333;51.976;20.144;2023-02-18T11:00:18;99553.34;;;8.06;57.81
36664;BME280;53333;51.976;20.144;2023-02-18T11:05:46;99543.69;;;8.04;57.93
36664;BME280;53333;51.976;20.144;2023-02-18T11:08:22;99537.44;;;8.05;57.89
36664;BME280;53333;51.976;20.144;2023-02-18T11:10:57;99537.38;;;8.06;57.72
36664;BME280;53333;51.976;20.144;2023-02-18T11:13:51;99533.06;;;8.04;57.88
36664;BME280;53333;51.976;20.144;2023-02-18T11:16:34;99528.75;;;8.01;57.78
36664;BME280;53333;51.976;20.144;2023-02-18T11:22:05;99535.06;;;7.98;57.73
36664;BME280;53333;51.976;20.144;2023-02-18T11:24:42;99534.16;;;7.99;57.71
36664;BME280;53333;51.976;20.144;2023-02-18T11:27:23;99537.53;;;8.03;57.61
36664;BME280;53333;51.976;20.144;2023-02-18T11:29:58;99524.94;;;8.07;57.58
36664;BME280;53333;51.976;20.144;2023-02-18T11:32:33;99514.00;;;8.13;57.58
36664;BME280;53333;51.976;20.144;2023-02-18T11:35:15;99526.28;;;8.15;57.52
36664;BME280;53333;51.976;20.144;2023-02-18T11:37:49;99533.16;;;8.19;57.63
36664;BME280;53333;51.976;20.144;2023-02-18T11:43:10;99537.34;;;8.25;57.30
36664;BME280;53333;51.976;20.144;2023-02-18T11:45:46;99517.84;;;8.25;57.39
36664;BME280;53333;51.976;20.144;2023-02-18T11:48:22;99519.56;;;8.26;57.52
36664;BME280;53333;51.976;20.144;2023-02-18T11:50:55;99513.31;;;8.27;57.42
36664;BME280;53333;51.976;20.144;2023-02-18T11:53:33;99504.47;;;8.26;57.44
36664;BME280;53333;51.976;20.144;2023-02-18T11:56:15;99509.63;;;8.29;57.48
36664;BME280;53333;51.976;20.144;2023-02-18T11:58:51;99510.50;;;8.30;57.47
36664;BME280;53333;51.976;20.144;2023-02-18T12:01:38;99504.00;;;8.35;57.45
36664;BME280;53333;51.976;20.144;2023-02-18T12:04:15;99498.47;;;8.40;57.36
36664;BME280;53333;51.976;20.144;2023-02-18T12:06:51;99493.97;;;8.41;57.38
36664;BME280;53333;51.976;20.144;2023-02-18T12:09:28;99487.75;;;8.42;57.36
36664;BME280;53333;51.976;20.144;2023-02-18T12:12:05;99494.78;;;8.43;57.26
36664;BME280;53333;51.976;20.144;2023-02-18T12:14:41;99484.09;;;8.44;57.24
36664;BME280;53333;51.976;20.144;2023-02-18T12:17:25;99482.22;;;8.46;57.12
36664;BME280;53333;51.976;20.144;2023-02-18T12:22:59;99476.66;;;8.51;57.25
36664;BME280;53333;51.976;20.144;2023-02-18T12:25:35;99472.88;;;8.55;57.31
36664;BME280;53333;51.976;20.144;2023-02-18T12:28:16;99465.63;;;8.59;57.19
36664;BME280;53333;51.976;20.144;2023-02-18T12:31:01;99445.88;;;8.63;57.19
36664;BME280;53333;51.976;20.144;2023-02-18T12:33:42;99448.53;;;8.63;57.04
36664;BME280;53333;51.976;20.144;2023-02-18T12:36:23;99440.56;;;8.63;57.15
36664;BME280;53333;51.976;20.144;2023-02-18T12:39:08;99437.72;;;8.66;57.18
36664;BME280;53333;51.976;20.144;2023-02-18T12:41:46;99447.53;;;8.65;56.98
36664;BME280;53333;51.976;20.144;2023-02-18T12:44:30;99435.16;;;8.64;57.17
36664;BME280;53333;51.976;20.144;2023-02-18T12:47:12;99436.19;;;8.62;57.25
36664;BME280;53333;51.976;20.144;2023-02-18T12:49:53;99438.03;;;8.60;57.27
36664;BME280;53333;51.976;20.144;2023-02-18T12:52:37;99440.00;;;8.56;57.29
36664;BME280;53333;51.976;20.144;2023-02-18T12:55:24;99443.75;;;8.52;57.36
36664;BME280;53333;51.976;20.144;2023-02-18T12:58:01;99445.66;;;8.50;57.25
36664;BME280;53333;51.976;20.144;2023-02-18T13:00:41;99426.25;;;8.48;57.34
36664;BME280;53333;51.976;20.144;2023-02-18T13:06:14;99433.31;;;8.49;57.24
36664;BME280;53333;51.976;20.144;2023-02-18T13:08:51;99427.97;;;8.49;57.36
36664;BME280;53333;51.976;20.144;2023-02-18T13:11:32;99429.75;;;8.48;57.36
36664;BME280;53333;51.976;20.144;2023-02-18T13:14:09;99425.31;;;8.49;57.12
36664;BME280;53333;51.976;20.144;2023-02-18T13:16:45;99426.94;;;8.51;57.22
36664;BME280;53333;51.976;20.144;2023-02-18T13:19:20;99423.28;;;8.54;57.31
36664;BME280;53333;51.976;20.144;2023-02-18T13:21:56;99421.38;;;8.56;57.34
36664;BME280;53333;51.976;20.144;2023-02-18T13:24:32;99420.38;;;8.59;57.27
36664;BME280;53333;51.976;20.144;2023-02-18T13:27:10;99419.41;;;8.60;57.22
36664;BME280;53333;51.976;20.144;2023-02-18T13:29:47;99420.06;;;8.65;57.21
36664;BME280;53333;51.976;20.144;2023-02-18T13:32:23;99419.00;;;8.67;57.15
36664;BME280;53333;51.976;20.144;2023-02-18T13:34:59;99425.31;;;8.66;57.08
36664;BME280;53333;51.976;20.144;2023-02-18T13:37:37;99418.25;;;8.65;57.15
36664;BME280;53333;51.976;20.144;2023-02-18T13:40:17;99420.91;;;8.65;57.13
36664;BME280;53333;51.976;20.144;2023-02-18T13:42:51;99420.91;;;8.65;57.18
36664;BME280;53333;51.976;20.144;2023-02-18T13:45:26;99419.97;;;8.66;57.14
36664;BME280;53333;51.976;20.144;2023-02-18T13:48:02;99426.06;;;8.68;57.26
36664;BME280;53333;51.976;20.144;2023-02-18T13:50:53;99420.75;;;8.68;57.07
36664;BME280;53333;51.976;20.144;2023-02-18T13:53:28;99407.44;;;8.68;57.22
36664;BME280;53333;51.976;20.144;2023-02-18T13:56:03;99412.75;;;8.68;57.10
36664;BME280;53333;51.976;20.144;2023-02-18T13:58:41;99402.97;;;8.69;57.14
36664;BME280;53333;51.976;20.144;2023-02-18T14:01:19;99399.38;;;8.70;57.13
36664;BME280;53333;51.976;20.144;2023-02-18T14:03:56;99386.91;;;8.70;57.05
36664;BME280;53333;51.976;20.144;2023-02-18T14:06:30;99385.81;;;8.75;57.08
36664;BME280;53333;51.976;20.144;2023-02-18T14:12:22;99380.94;;;8.83;57.01
36664;BME280;53333;51.976;20.144;2023-02-18T14:14:56;99373.09;;;8.80;57.13